Time;durP1;ratioP1;P1;durP2;ratioP2;P2;SDS_P1;SDS_P2;PMS_P1;PMS_P2;Temp;Humidity;BMP_temperature;BMP_pressure;BME280_temperature;BME280_humidity;BME280_pressure;Samples;Min_cycle;Max_cycle;Signal;HPM_P1;HPM_P2
2023/02/20 00:01:47;;;;;;;0.00;0.00;;;;;;;12.98;66.05;101521.31;7355803;19;20042;-58
2023/02/20 00:04:12;;;;;;;0.10;0.10;;;;;;;12.97;66.12;101511.69;7359268;19;20006;-57
2023/02/20 00:06:38;;;;;;;0.00;0.00;;;;;;;12.96;66.10;101530.94;7358616;19;20006;-57
2023/02/20 00:09:03;;;;;;;0.00;0.00;;;;;;;12.93;66.49;101516.16;7356712;19;20437;-57
2023/02/20 00:11:29;;;;;;;0.10;0.10;;;;;;;12.90;66.14;101523.19;7358559;19;20010;-57
2023/02/20 00:13:54;;;;;;;0.00;0.00;;;;;;;12.86;66.39;101513.66;7353379;19;20031;-57
2023/02/20 00:16:19;;;;;;;0.00;0.00;;;;;;;12.85;67.01;101506.69;7359128;19;20757;-58
2023/02/20 00:18:45;;;;;;;0.10;0.10;;;;;;;12.83;66.45;101511.13;7358761;19;20014;-57
2023/02/20 00:21:11;;;;;;;0.00;0.00;;;;;;;12.81;67.16;101515.50;7358644;19;20010;-57
2023/02/20 00:23:36;;;;;;;0.00;0.00;;;;;;;12.79;66.86;101505.06;7358524;19;20483;-57
2023/02/20 00:26:02;;;;;;;0.10;0.10;;;;;;;12.75;66.67;101505.16;7359007;19;20030;-57
2023/02/20 00:28:28;;;;;;;0.10;0.10;;;;;;;12.76;66.38;101506.88;7348395;19;20002;-57
2023/02/20 00:30:54;;;;;;;0.00;0.00;;;;;;;12.61;67.41;101487.91;7351609;19;20070;-57
2023/02/20 00:33:19;;;;;;;0.10;0.10;;;;;;;12.69;67.41;101500.88;7352563;19;20021;-57
2023/02/20 00:35:45;;;;;;;0.05;0.05;;;;;;;12.66;67.58;101501.78;7335457;19;20916;-57
2023/02/20 00:38:10;;;;;;;0.10;0.10;;;;;;;12.64;67.55;101502.72;7350803;19;20015;-57
2023/02/20 00:40:35;;;;;;;0.03;0.03;;;;;;;12.62;67.80;101497.53;7350293;19;20010;-57
2023/02/20 00:43:01;;;;;;;0.00;0.00;;;;;;;12.60;67.79;101499.28;7351993;19;20026;-57
2023/02/20 00:45:27;;;;;;;0.10;0.10;;;;;;;12.60;67.23;101499.28;7341086;19;20880;-57
2023/02/20 00:47:52;;;;;;;0.10;0.10;;;;;;;12.61;67.35;101501.00;7324466;19;19998;-56
2023/02/20 00:50:18;;;;;;;0.10;0.10;;;;;;;12.56;67.69;101481.88;7313371;19;20002;-57
2023/02/20 00:52:44;;;;;;;0.00;0.00;;;;;;;12.58;67.50;101481.88;7330556;19;20020;-57
2023/02/20 00:55:09;;;;;;;0.00;0.00;;;;;;;12.55;67.69;101477.56;7342429;19;20743;-57
2023/02/20 00:57:35;;;;;;;0.00;0.00;;;;;;;12.36;67.75;101450.81;7332090;19;20089;-57
2023/02/20 01:00:01;;;;;;;0.10;0.10;;;;;;;12.56;67.57;101467.94;7337034;19;20006;-58
2023/02/20 01:02:26;;;;;;;0.00;0.00;;;;;;;12.53;67.66;101468.00;7322734;19;20007;-57
2023/02/20 01:04:52;;;;;;;0.00;0.00;;;;;;;12.54;68.05;101460.09;7344050;19;21027;-57
2023/02/20 01:07:17;;;;;;;0.00;0.00;;;;;;;12.53;68.28;101466.25;7355830;19;20027;-58
2023/02/20 01:09:43;;;;;;;0.03;0.03;;;;;;;12.27;67.96;101434.44;7356550;19;20010;-58
2023/02/20 01:12:09;;;;;;;0.00;0.00;;;;;;;12.53;67.91;101479.34;7352253;19;20021;-58
2023/02/20 01:14:34;;;;;;;0.00;0.00;;;;;;;12.53;67.79;101462.75;7355340;19;20022;-57
2023/02/20 01:17:00;;;;;;;0.10;0.10;;;;;;;12.45;67.72;101460.28;7351571;19;20248;-57
2023/02/20 01:19:25;;;;;;;0.00;0.00;;;;;;;12.52;67.82;101471.50;7354892;19;20097;-56
2023/02/20 01:21:51;;;;;;;0.00;0.00;;;;;;;12.33;67.95;101444.78;7355391;19;20500;-58
2023/02/20 01:24:17;;;;;;;0.00;0.00;;;;;;;12.44;68.17;101459.41;7359209;19;20002;-57
2023/02/20 01:26:44;;;;;;;0.00;0.00;;;;;;;12.47;68.70;101469.00;7354647;19;20010;-56
2023/02/20 01:29:11;;;;;;;0.08;0.08;;;;;;;12.33;68.48;101444.78;7357065;19;20671;-56
2023/02/20 01:31:36;;;;;;;0.00;0.00;;;;;;;12.45;68.99;101466.38;7351638;19;20426;-57
2023/02/20 01:34:02;;;;;;;0.00;0.00;;;;;;;12.29;68.94;101438.72;7359828;19;20045;-57
2023/02/20 01:36:28;;;;;;;0.00;0.00;;;;;;;12.50;68.97;101474.16;7348354;19;20010;-56
2023/02/20 01:38:53;;;;;;;0.00;0.00;;;;;;;12.46;68.87;101477.72;7349001;19;20018;-57
2023/02/20 01:41:19;;;;;;;0.10;0.10;;;;;;;12.39;68.75;101460.38;7357474;19;20045;-57
2023/02/20 01:43:45;;;;;;;0.03;0.03;;;;;;;12.56;68.87;101483.66;7355836;19;20013;-57
2023/02/20 01:46:25;;;;;;;0.00;0.00;;;;;;;12.60;68.23;101475.72;7356247;19;20045;-57
2023/02/20 01:49:04;;;;;;;0.00;0.00;;;;;;;12.59;68.93;101474.00;7354655;19;20014;-57
2023/02/20 01:51:37;;;;;;;0.10;0.10;;;;;;;12.65;68.56;101486.97;7332475;19;21093;-57
2023/02/20 01:54:07;;;;;;;0.00;0.00;;;;;;;12.51;68.47;101470.63;7356987;19;20025;-58
2023/02/20 01:56:33;;;;;;;0.00;0.00;;;;;;;12.65;68.33;101468.63;7351733;19;20344;-57
2023/02/20 01:58:58;;;;;;;0.10;0.10;;;;;;;12.59;68.22;101458.25;7356037;19;20012;-57
2023/02/20 02:01:24;;;;;;;0.10;0.10;;;;;;;12.69;68.20;101462.44;7351194;19;20010;-57
2023/02/20 02:03:56;;;;;;;0.00;0.00;;;;;;;12.72;68.43;101453.63;7356137;19;20003;-57
2023/02/20 02:06:24;;;;;;;0.00;0.00;;;;;;;12.59;68.67;101452.16;7354110;19;20003;-57
2023/02/20 02:08:50;;;;;;;0.00;0.00;;;;;;;12.73;68.54;101487.69;7349474;19;20073;-58
2023/02/20 02:11:19;;;;;;;0.10;0.10;;;;;;;12.73;68.12;101477.22;7355945;19;20042;-57
2023/02/20 02:13:44;;;;;;;0.00;0.00;;;;;;;12.78;68.51;101476.28;7350202;19;20461;-56
2023/02/20 02:16:27;;;;;;;0.00;0.00;;;;;;;12.80;68.38;101471.84;7351903;19;22331;-57
2023/02/20 02:19:17;;;;;;;0.10;0.10;;;;;;;12.81;68.56;101479.66;7353954;19;21011;-58
2023/02/20 02:22:04;;;;;;;0.00;0.00;;;;;;;12.81;68.36;101478.81;7352698;19;20413;-57
2023/02/20 02:25:04;;;;;;;0.10;0.10;;;;;;;12.84;68.13;101473.53;7355557;19;20010;-56
2023/02/20 02:27:47;;;;;;;0.05;0.05;;;;;;;12.84;68.04;101484.00;7258900;19;2004127;-57
2023/02/20 02:30:34;;;;;;;0.00;0.00;;;;;;;12.84;68.37;101478.75;7359780;19;20049;-58
2023/02/20 02:33:30;;;;;;;0.10;0.10;;;;;;;12.83;68.18;101466.56;7359806;19;20011;-56
2023/02/20 02:36:05;;;;;;;0.00;0.00;;;;;;;12.83;68.21;101477.03;7253753;19;2004308;-59
2023/02/20 02:38:57;;;;;;;0.10;0.10;;;;;;;12.84;68.20;101463.03;7360276;19;20108;-58
2023/02/20 02:41:39;;;;;;;0.10;0.10;;;;;;;12.83;68.50;101466.56;7256023;19;2004281;-57
2023/02/20 02:44:20;;;;;;;0.03;0.03;;;;;;;12.83;68.30;101475.28;7361023;19;20021;-58
2023/02/20 02:46:53;;;;;;;0.03;0.03;;;;;;;12.80;68.77;101467.47;7359213;19;20272;-57
2023/02/20 02:49:28;;;;;;;0.10;0.10;;;;;;;12.83;68.33;101477.03;7362359;19;20719;-58
2023/02/20 02:51:55;;;;;;;0.10;0.10;;;;;;;12.81;69.08;101468.31;7353383;19;20133;-57
2023/02/20 02:54:27;;;;;;;0.10;0.10;;;;;;;12.81;68.62;101465.72;7360102;19;20882;-57
2023/02/20 02:57:13;;;;;;;0.00;0.00;;;;;;;12.82;68.58;101470.91;7353863;19;20700;-57
2023/02/20 02:59:39;;;;;;;0.10;0.10;;;;;;;12.83;68.66;101466.56;7348274;19;20917;-57
2023/02/20 03:02:11;;;;;;;0.10;0.10;;;;;;;12.83;68.30;101456.06;7359567;19;20564;-58
2023/02/20 03:04:40;;;;;;;0.00;0.00;;;;;;;12.67;68.67;101424.94;7360475;19;20590;-57
2023/02/20 03:07:14;;;;;;;0.00;0.00;;;;;;;12.86;68.52;101450.75;7354159;19;20014;-58
2023/02/20 03:09:47;;;;;;;0.00;0.00;;;;;;;12.82;68.08;101451.69;7359695;19;20730;-57
2023/02/20 03:12:15;;;;;;;0.00;0.00;;;;;;;12.85;68.77;101449.03;7357966;19;20002;-58
2023/02/20 03:17:45;;;;;;;0.00;0.00;;;;;;;12.88;68.56;101454.22;7357362;19;20023;-57
2023/02/20 03:20:15;;;;;;;0.10;0.10;;;;;;;12.88;68.70;101441.13;7348868;19;20019;-58
2023/02/20 03:22:46;;;;;;;0.10;0.10;;;;;;;12.91;68.44;101448.91;7359620;19;20054;-57
2023/02/20 03:25:20;;;;;;;0.00;0.00;;;;;;;12.92;68.61;101466.34;7349415;19;21550;-57
2023/02/20 03:27:57;;;;;;;0.00;0.00;;;;;;;12.94;68.42;101464.59;7357798;19;20010;-57
2023/02/20 03:30:35;;;;;;;0.10;0.10;;;;;;;12.92;68.44;101434.91;7352413;19;20424;-57
2023/02/20 03:44:11;;;;;;;0.00;0.00;;;;;;;12.89;68.65;101414.88;7355987;19;20034;-57
2023/02/20 03:46:38;;;;;;;0.00;0.00;;;;;;;12.90;68.79;101426.22;7356702;19;20006;-57
2023/02/20 03:49:12;;;;;;;0.10;0.10;;;;;;;12.88;68.49;101417.53;7358627;19;20808;-57
2023/02/20 03:51:38;;;;;;;0.10;0.10;;;;;;;12.86;68.64;101408.81;7352735;19;20506;-57
2023/02/20 03:54:04;;;;;;;0.08;0.08;;;;;;;12.89;68.87;101424.50;7355697;19;20037;-58
2023/02/20 03:56:35;;;;;;;0.00;0.00;;;;;;;12.94;68.67;101422.63;7357575;19;20480;-58
2023/02/20 03:59:08;;;;;;;0.10;0.10;;;;;;;12.92;68.76;101420.03;7356507;19;20010;-57
2023/02/20 04:01:36;;;;;;;0.00;0.00;;;;;;;12.94;69.00;101409.53;7356165;19;20031;-57
2023/02/20 04:04:02;;;;;;;;;;;;;;;12.99;68.28;101420.78;7331637;19;20474;-58
2023/02/20 04:06:31;;;;;;;0.10;0.10;;;;;;;12.96;68.98;101416.44;7357484;19;19923;-57
2023/02/20 04:09:24;;;;;;;0.10;0.10;;;;;;;12.99;68.53;101410.28;7357555;19;20007;-57
2023/02/20 04:12:26;;;;;;;0.00;0.00;;;;;;;12.87;68.78;101415.78;7249471;19;2004404;-57
2023/02/20 04:14:55;;;;;;;0.00;0.00;;;;;;;12.65;68.61;101361.19;7249683;19;2004147;-58
2023/02/20 04:17:27;;;;;;;0.10;0.10;;;;;;;12.94;68.77;101418.25;7356689;19;20022;-59
2023/02/20 04:19:53;;;;;;;0.10;0.10;;;;;;;12.94;69.08;101412.16;7355756;19;20010;-57
2023/02/20 04:22:26;;;;;;;0.10;0.10;;;;;;;12.96;68.83;101415.59;7338824;19;20017;-57
2023/02/20 04:24:58;;;;;;;0.00;0.00;;;;;;;12.94;68.91;101406.91;7355084;19;20458;-57
2023/02/20 04:27:24;;;;;;;0.00;0.00;;;;;;;12.94;69.31;101412.16;7357729;19;20018;-58
2023/02/20 04:29:49;;;;;;;0.10;0.10;;;;;;;12.80;68.85;101380.97;7358331;19;20120;-56
2023/02/20 04:32:15;;;;;;;0.03;0.03;;;;;;;12.96;69.00;101402.47;7347811;19;20037;-57
2023/02/20 04:34:40;;;;;;;0.10;0.10;;;;;;;12.97;69.04;101409.44;7354488;19;20041;-57
2023/02/20 04:37:10;;;;;;;0.00;0.00;;;;;;;12.99;68.82;101402.44;7352878;19;20018;-57
2023/02/20 04:39:35;;;;;;;0.10;0.10;;;;;;;12.99;68.87;101402.44;7358589;19;20015;-57
2023/02/20 04:42:01;;;;;;;0.10;0.10;;;;;;;13.02;68.95;101404.97;7356066;19;20006;-57
2023/02/20 04:44:33;;;;;;;0.10;0.10;;;;;;;13.01;69.25;101403.25;7356539;19;20021;-57
2023/02/20 04:47:04;;;;;;;0.10;0.10;;;;;;;13.04;69.09;101399.72;7356948;19;20014;-57
2023/02/20 04:49:30;;;;;;;0.00;0.00;;;;;;;13.02;68.73;101394.47;7357622;19;20447;-58
2023/02/20 04:51:55;;;;;;;0.05;0.05;;;;;;;13.02;69.01;101418.06;7356412;19;20115;-59
2023/02/20 04:54:21;;;;;;;0.00;0.00;;;;;;;13.03;68.92;101401.47;7355203;19;20085;-57
2023/02/20 04:56:47;;;;;;;0.00;0.00;;;;;;;13.04;69.03;101395.31;7357294;19;20096;-57
2023/02/20 04:59:12;;;;;;;0.00;0.00;;;;;;;13.04;68.95;101397.94;7358209;19;20777;-57
2023/02/20 05:01:38;;;;;;;0.00;0.00;;;;;;;13.04;68.91;101400.56;7354500;19;20087;-57
2023/02/20 05:04:04;;;;;;;0.00;0.00;;;;;;;13.02;68.87;101415.44;7352702;19;20011;-58
2023/02/20 05:06:29;;;;;;;0.00;0.00;;;;;;;13.05;68.83;101393.56;7355579;19;20018;-57
2023/02/20 05:08:55;;;;;;;0.00;0.00;;;;;;;12.95;69.11;101385.03;7355798;19;20047;-57
2023/02/20 05:11:21;;;;;;;0.10;0.10;;;;;;;12.98;69.17;101382.34;7356371;19;20038;-57
2023/02/20 05:13:46;;;;;;;0.03;0.03;;;;;;;13.07;68.80;101403.09;7357457;19;20014;-57
2023/02/20 05:16:12;;;;;;;0.00;0.00;;;;;;;13.07;68.96;101397.84;7358882;19;20351;-57
2023/02/20 05:18:38;;;;;;;0.00;0.00;;;;;;;13.07;68.91;101394.38;7351245;19;20003;-57
2023/02/20 05:23:48;;;;;;;0.03;0.03;;;;;;;13.09;69.27;101400.47;7355589;19;20017;-57
2023/02/20 05:26:18;;;;;;;0.00;0.00;;;;;;;13.11;68.65;101394.28;7352861;19;20030;-57
2023/02/20 05:28:44;;;;;;;0.03;0.03;;;;;;;13.09;68.78;101393.47;7356120;19;20467;-58
2023/02/20 05:31:10;;;;;;;0.00;0.00;;;;;;;12.94;68.86;101370.19;7355417;19;20015;-57
2023/02/20 05:33:35;;;;;;;0.00;0.00;;;;;;;13.10;69.11;101382.06;7356169;19;20015;-57
2023/02/20 05:36:01;;;;;;;0.10;0.10;;;;;;;13.10;68.78;101395.19;7354066;19;20471;-57
2023/02/20 05:38:26;;;;;;;0.05;0.05;;;;;;;13.09;68.71;101406.56;7354673;19;20007;-57
2023/02/20 05:40:52;;;;;;;0.00;0.00;;;;;;;13.11;68.54;101399.53;7355904;19;20059;-57
2023/02/20 05:43:17;;;;;;;0.00;0.00;;;;;;;13.11;68.97;101394.28;7354994;19;20011;-57
2023/02/20 05:45:43;;;;;;;0.00;0.00;;;;;;;12.84;68.70;101359.06;7355446;19;20829;-57
2023/02/20 05:48:11;;;;;;;0.00;0.00;;;;;;;13.02;68.70;101384.00;7355435;19;20605;-57
2023/02/20 05:50:36;;;;;;;0.10;0.10;;;;;;;13.11;68.86;101391.66;7354070;19;20014;-57
2023/02/20 05:53:02;;;;;;;0.10;0.10;;;;;;;13.11;68.49;101399.53;7356636;19;20414;-57
2023/02/20 05:55:29;;;;;;;0.00;0.00;;;;;;;13.12;68.93;101395.16;7355113;19;20668;-57
2023/02/20 05:57:55;;;;;;;0.05;0.05;;;;;;;13.11;68.73;101404.78;7355732;19;20010;-57
2023/02/20 06:00:21;;;;;;;0.00;0.00;;;;;;;13.09;68.94;101397.84;7358397;19;20413;-57
2023/02/20 06:02:47;;;;;;;0.10;0.10;;;;;;;13.12;68.43;101392.53;7361873;19;20042;-58
2023/02/20 06:05:12;;;;;;;0.00;0.00;;;;;;;13.10;68.96;101379.44;7364159;19;20006;-57
2023/02/20 06:07:38;;;;;;;0.08;0.08;;;;;;;13.12;68.76;101389.91;7357352;19;20030;-57
2023/02/20 06:10:04;;;;;;;0.10;0.10;;;;;;;13.05;68.44;101373.44;7359312;19;20035;-57
2023/02/20 06:12:29;;;;;;;0.00;0.00;;;;;;;13.11;68.62;101383.78;7358925;19;20011;-57
2023/02/20 06:14:55;;;;;;;0.10;0.10;;;;;;;13.11;68.68;101383.78;7362817;19;20551;-57
2023/02/20 06:17:20;;;;;;;0.10;0.10;;;;;;;13.10;68.95;101376.81;7361141;19;20023;-57
2023/02/20 06:19:46;;;;;;;0.10;0.10;;;;;;;13.08;68.54;101389.13;7361943;19;20010;-57
2023/02/20 06:22:11;;;;;;;0.00;0.00;;;;;;;13.12;68.61;101374.16;7362081;19;20006;-57
2023/02/20 06:24:36;;;;;;;0.10;0.10;;;;;;;13.13;68.70;101382.03;7362448;19;20011;-57
2023/02/20 06:27:02;;;;;;;0.10;0.10;;;;;;;13.03;68.56;101380.50;7359696;19;20010;-56
2023/02/20 06:29:28;;;;;;;0.10;0.10;;;;;;;13.14;68.77;101375.88;7360720;19;20006;-57
2023/02/20 06:31:57;;;;;;;0.10;0.10;;;;;;;13.15;68.48;101380.22;7359252;19;20798;-57
2023/02/20 06:34:24;;;;;;;0.10;0.10;;;;;;;13.13;68.88;101392.50;7359997;19;20010;-57
2023/02/20 06:36:50;;;;;;;0.00;0.00;;;;;;;13.14;68.75;101377.63;7357360;19;20034;-57
2023/02/20 06:39:15;;;;;;;0.05;0.05;;;;;;;13.12;68.84;101375.03;7362469;19;20335;-57
2023/02/20 06:41:41;;;;;;;0.10;0.10;;;;;;;13.13;68.70;101376.78;7362653;19;20028;-57
2023/02/20 06:44:06;;;;;;;0.03;0.03;;;;;;;13.10;69.10;101363.72;7359810;19;20623;-58
2023/02/20 06:46:32;;;;;;;0.08;0.08;;;;;;;13.03;68.86;101349.03;7359956;19;20031;-57
2023/02/20 06:48:58;;;;;;;0.00;0.00;;;;;;;13.15;69.06;101371.47;7360583;19;20025;-56
2023/02/20 06:51:26;;;;;;;0.03;0.03;;;;;;;13.15;69.02;101369.72;7358246;19;20006;-57
2023/02/20 06:53:52;;;;;;;0.10;0.10;;;;;;;13.12;69.12;101369.78;7358567;19;20928;-57
2023/02/20 06:56:20;;;;;;;0.10;0.10;;;;;;;13.13;69.46;101376.78;7359550;19;20081;-57
2023/02/20 06:58:47;;;;;;;0.00;0.00;;;;;;;13.14;69.42;101381.13;7346133;19;20035;-58
2023/02/20 07:01:14;;;;;;;0.00;0.00;;;;;;;13.12;69.64;101369.78;7356188;19;20010;-57
2023/02/20 07:03:39;;;;;;;0.10;0.10;;;;;;;13.13;68.95;101366.28;7351973;19;20032;-57
2023/02/20 07:06:05;;;;;;;0.00;0.00;;;;;;;13.13;69.09;101358.41;7353798;19;20945;-57
2023/02/20 07:08:30;;;;;;;0.10;0.10;;;;;;;13.04;69.62;101353.38;7352976;19;20018;-57
2023/02/20 07:10:56;;;;;;;0.00;0.00;;;;;;;13.12;69.32;101390.75;7351658;19;20089;-57
2023/02/20 07:13:21;;;;;;;0.10;0.10;;;;;;;13.11;69.65;101381.16;7353296;19;20018;-57
2023/02/20 07:15:48;;;;;;;0.00;0.00;;;;;;;13.05;69.86;101364.72;7354587;19;20014;-57
2023/02/20 07:18:13;;;;;;;0.10;0.10;;;;;;;13.10;69.75;101371.59;7356598;19;20015;-57
2023/02/20 07:20:39;;;;;;;0.00;0.00;;;;;;;13.10;70.08;101391.69;7358680;19;20425;-57
2023/02/20 07:23:04;;;;;;;0.00;0.00;;;;;;;13.07;69.93;101376.88;7355634;19;21690;-58
2023/02/20 07:25:30;;;;;;;0.00;0.00;;;;;;;13.07;69.91;101376.03;7359034;19;20010;-58
2023/02/20 07:27:55;;;;;;;0.00;0.00;;;;;;;13.08;70.38;101370.78;7355383;19;20030;-57
2023/02/20 07:30:23;;;;;;;0.10;0.10;;;;;;;13.05;70.45;101378.69;7355200;19;20026;-57
2023/02/20 07:32:49;;;;;;;0.00;0.00;;;;;;;13.06;70.06;101374.31;7352694;19;20010;-58
2023/02/20 07:35:15;;;;;;;0.10;0.10;;;;;;;13.04;70.27;101392.69;7358943;19;20010;-57
2023/02/20 07:37:40;;;;;;;0.00;0.00;;;;;;;13.02;70.41;101381.38;7355598;19;20377;-57
2023/02/20 07:40:06;;;;;;;0.00;0.00;;;;;;;12.99;70.28;101389.31;7352054;19;20014;-57
2023/02/20 07:42:31;;;;;;;0.00;0.00;;;;;;;13.00;70.60;101391.03;7314744;19;20015;-57
2023/02/20 07:44:57;;;;;;;0.00;0.00;;;;;;;12.99;70.16;101378.84;7326473;19;20009;-57
2023/02/20 07:47:22;;;;;;;0.00;0.00;;;;;;;12.97;70.68;101398.97;7344752;19;20786;-61
2023/02/20 07:49:47;;;;;;;0.00;0.00;;;;;;;12.95;70.89;101403.38;7354130;19;20003;-61
2023/02/20 07:52:13;;;;;;;0.00;0.00;;;;;;;12.94;71.42;101396.41;7357437;19;20014;-61
2023/02/20 07:54:38;;;;;;;0.00;0.00;;;;;;;12.94;70.80;101385.94;7352641;19;20015;-60
2023/02/20 07:57:04;;;;;;;0.00;0.00;;;;;;;12.90;71.33;101386.88;7351240;19;20463;-60
2023/02/20 07:59:29;;;;;;;0.10;0.10;;;;;;;12.94;71.60;101404.28;7351543;19;20036;-61
2023/02/20 08:01:55;;;;;;;0.00;0.00;;;;;;;12.95;71.59;101392.91;7351376;19;20006;-60
2023/02/20 08:04:20;;;;;;;0.10;0.10;;;;;;;12.94;71.51;101397.28;7352876;19;20035;-61
2023/02/20 08:06:45;;;;;;;0.00;0.00;;;;;;;12.97;71.08;101412.06;7355818;19;20031;-60
2023/02/20 08:09:11;;;;;;;0.00;0.00;;;;;;;12.78;71.13;101380.16;7357927;19;20017;-60
2023/02/20 08:11:37;;;;;;;0.00;0.00;;;;;;;13.02;71.13;101399.72;7359032;19;20021;-60
2023/02/20 08:14:05;;;;;;;0.10;0.10;;;;;;;12.88;71.47;101375.59;7360738;19;20566;-60
2023/02/20 08:16:32;;;;;;;0.10;0.10;;;;;;;13.04;71.17;101408.44;7358498;19;20391;-60
2023/02/20 08:18:58;;;;;;;0.00;0.00;;;;;;;12.94;71.71;101392.03;7359511;19;20006;-61
2023/02/20 08:21:23;;;;;;;0.10;0.10;;;;;;;12.96;71.60;101395.47;7356050;19;21076;-61
2023/02/20 08:23:49;;;;;;;0.00;0.00;;;;;;;13.08;71.38;101425.84;7359330;19;20006;-61
2023/02/20 08:26:14;;;;;;;0.00;0.00;;;;;;;13.10;70.93;101424.03;7352754;19;20018;-61
2023/02/20 08:28:39;;;;;;;0.00;0.00;;;;;;;13.12;71.30;101431.84;7347393;19;20018;-61
2023/02/20 08:31:05;;;;;;;0.00;0.00;;;;;;;13.11;71.65;101423.13;7355454;19;20032;-61
2023/02/20 08:33:33;;;;;;;0.00;0.00;;;;;;;13.16;71.43;101436.16;7353147;19;20014;-61
2023/02/20 08:35:59;;;;;;;0.10;0.10;;;;;;;13.19;70.87;101433.47;7350202;19;20478;-60
2023/02/20 08:38:33;;;;;;;0.10;0.10;;;;;;;13.23;70.87;101428.16;7356858;19;20014;-60
2023/02/20 08:40:59;;;;;;;0.10;0.10;;;;;;;13.23;71.19;101429.91;7355656;19;20023;-61
2023/02/20 08:43:25;;;;;;;0.10;0.10;;;;;;;13.20;70.93;101403.72;7350954;19;21602;-61
2023/02/20 08:45:50;;;;;;;0.10;0.10;;;;;;;13.22;70.90;101402.78;7354980;19;20011;-60
2023/02/20 08:48:16;;;;;;;0.00;0.00;;;;;;;13.31;70.88;101421.88;7351027;19;20039;-61
2023/02/20 08:50:41;;;;;;;0.10;0.10;;;;;;;13.34;70.91;101429.69;7353463;19;20035;-60
2023/02/20 08:53:07;;;;;;;0.10;0.10;;;;;;;13.33;70.51;101426.19;7352543;19;20802;-61
2023/02/20 08:55:32;;;;;;;0.10;0.10;;;;;;;13.36;70.73;101430.50;7348921;19;20015;-60
2023/02/20 08:57:57;;;;;;;0.00;0.00;;;;;;;13.39;70.80;101427.81;7349280;19;20003;-61
2023/02/20 09:00:23;;;;;;;0.08;0.08;;;;;;;13.42;70.24;101425.09;7345344;19;20024;-61
2023/02/20 09:02:48;;;;;;;0.00;0.00;;;;;;;13.40;70.24;101421.66;7350297;19;20027;-60
2023/02/20 09:05:15;;;;;;;0.05;0.05;;;;;;;13.40;70.33;101416.41;7354358;19;20033;-61
2023/02/20 09:07:40;;;;;;;0.00;0.00;;;;;;;13.48;70.19;101424.94;7354519;19;20014;-61
2023/02/20 09:10:06;;;;;;;0.10;0.10;;;;;;;13.52;70.13;101415.25;7354343;19;21165;-61
2023/02/20 09:12:32;;;;;;;0.00;0.00;;;;;;;13.55;69.95;101437.06;7355419;19;20380;-61
2023/02/20 09:15:01;;;;;;;0.05;0.05;;;;;;;13.56;70.06;101428.28;7344799;19;20011;-60
2023/02/20 09:17:27;;;;;;;0.10;0.10;;;;;;;13.53;69.97;101412.59;7350226;19;20047;-60
2023/02/20 09:19:52;;;;;;;0.00;0.00;;;;;;;13.59;69.76;101430.84;7342212;19;20389;-61
2023/02/20 09:22:25;;;;;;;0.10;0.10;;;;;;;13.64;69.75;101428.09;7351359;19;20013;-61
2023/02/20 09:24:52;;;;;;;0.08;0.08;;;;;;;13.67;69.57;101436.75;7350360;19;20007;-60
2023/02/20 09:27:18;;;;;;;0.03;0.03;;;;;;;13.68;69.83;101438.47;7351491;19;20022;-61
2023/02/20 09:29:43;;;;;;;0.10;0.10;;;;;;;13.71;69.68;101427.91;7350314;19;20010;-60
2023/02/20 09:32:10;;;;;;;0.10;0.10;;;;;;;13.69;69.47;101432.34;7348425;19;20018;-61
2023/02/20 09:34:35;;;;;;;0.00;0.00;;;;;;;13.71;69.25;101441.03;7335859;19;20006;-61
2023/02/20 09:37:01;;;;;;;0.00;0.00;;;;;;;13.75;69.56;101428.72;7342465;19;20040;-61
2023/02/20 09:39:27;;;;;;;0.00;0.00;;;;;;;13.76;69.00;101431.28;7346572;19;20014;-60
2023/02/20 09:41:58;;;;;;;0.05;0.05;;;;;;;13.79;69.07;101434.72;7345752;19;20021;-60
2023/02/20 09:44:45;;;;;;;0.00;0.00;;;;;;;13.82;69.25;101429.41;7347204;19;20006;-61
2023/02/20 09:47:40;;;;;;;0.10;0.10;;;;;;;13.81;69.12;101433.81;7340722;19;20006;-60
2023/02/20 09:50:17;;;;;;;0.00;0.00;;;;;;;13.81;69.05;101427.69;7244441;19;2004461;-61
2023/02/20 09:52:45;;;;;;;0.10;0.10;;;;;;;13.79;69.37;101429.47;7346616;19;20011;-61
2023/02/20 09:55:16;;;;;;;0.10;0.10;;;;;;;13.84;68.90;101433.75;7349993;19;20010;-61
2023/02/20 09:57:46;;;;;;;0.10;0.10;;;;;;;13.88;69.09;101442.38;7348310;19;20006;-60
2023/02/20 10:00:20;;;;;;;0.00;0.00;;;;;;;13.91;68.92;101429.19;7354108;19;20010;-60
2023/02/20 10:03:12;;;;;;;0.00;0.00;;;;;;;13.92;69.07;101420.41;7350677;19;21890;-61
2023/02/20 10:05:38;;;;;;;0.00;0.00;;;;;;;13.91;68.64;101410.81;7354393;19;20010;-60
2023/02/20 10:08:08;;;;;;;0.00;0.00;;;;;;;13.92;68.76;101420.41;7347838;19;20049;-61
2023/02/20 10:10:37;;;;;;;0.10;0.10;;;;;;;13.96;68.71;101419.44;7355249;19;20558;-61
2023/02/20 10:13:21;;;;;;;0.10;0.10;;;;;;;14.02;68.53;101432.41;7353065;19;20047;-61
2023/02/20 10:16:09;;;;;;;0.00;0.00;;;;;;;14.03;68.35;101413.13;7354171;19;20017;-61
2023/02/20 10:18:51;;;;;;;0.00;0.00;;;;;;;14.03;68.72;101413.13;7350004;19;20014;-60
2023/02/20 10:21:43;;;;;;;0.00;0.00;;;;;;;14.07;68.39;101416.53;7337892;19;20729;-61
2023/02/20 10:24:30;;;;;;;0.00;0.00;;;;;;;14.09;68.39;101412.97;7242768;19;2004455;-61
2023/02/20 10:27:15;;;;;;;0.10;0.10;;;;;;;14.13;68.69;101414.59;7344474;19;20018;-60
2023/02/20 10:29:43;;;;;;;0.00;0.00;;;;;;;14.17;68.65;101420.66;7344983;19;20007;-61
2023/02/20 10:32:12;;;;;;;;;;;;;;;14.24;68.44;101406.44;7350086;19;20102;-60
2023/02/20 10:34:43;;;;;;;0.00;0.00;;;;;;;14.27;68.04;101412.47;7347915;19;19950;-61
2023/02/20 10:37:20;;;;;;;0.00;0.00;;;;;;;14.34;67.96;101412.31;7346165;19;20030;-61
2023/02/20 10:40:24;;;;;;;0.00;0.00;;;;;;;14.37;67.82;101407.84;7347349;19;20010;-61
2023/02/20 10:43:19;;;;;;;0.00;0.00;;;;;;;14.42;67.78;101411.22;7239231;19;2004360;-60
2023/02/20 10:45:57;;;;;;;0.00;0.00;;;;;;;14.46;67.57;101417.25;7251261;19;2004499;-60
2023/02/20 10:48:25;;;;;;;;;;;;;;;14.55;67.62;101401.25;7353044;19;20019;-61
2023/02/20 10:51:08;;;;;;;0.00;0.00;;;;;;;14.59;67.19;101405.50;7357257;19;20537;-61
2023/02/20 10:53:57;;;;;;;0.10;0.10;;;;;;;14.64;67.02;101385.22;7361394;19;20018;-61
2023/02/20 10:56:37;;;;;;;0.00;0.00;;;;;;;14.66;66.91;101393.94;7354695;19;20003;-60
2023/02/20 10:59:16;;;;;;;0.00;0.00;;;;;;;14.70;67.17;101378.91;7358632;19;21665;-60
2023/02/20 11:01:43;;;;;;;0.10;0.10;;;;;;;14.75;66.96;101380.53;7359072;19;20017;-60
2023/02/20 11:04:16;;;;;;;0.00;0.00;;;;;;;14.82;67.03;101373.31;7355693;19;21022;-61
2023/02/20 11:06:45;;;;;;;0.00;0.00;;;;;;;14.70;66.47;101343.00;7357876;19;20392;-60
2023/02/20 11:09:11;;;;;;;0.10;0.10;;;;;;;14.85;66.72;101356.56;7358905;19;20010;-60
2023/02/20 11:11:42;;;;;;;0.10;0.10;;;;;;;14.91;66.86;101356.41;7354816;19;20830;-61
2023/02/20 11:14:32;;;;;;;0.00;0.00;;;;;;;14.98;66.79;101355.31;7358882;19;20111;-61
2023/02/20 11:17:03;;;;;;;0.10;0.10;;;;;;;15.00;66.48;101366.63;7356878;19;20426;-60
2023/02/20 11:19:42;;;;;;;0.00;0.00;;;;;;;15.06;66.29;101361.19;7352778;19;20842;-61
2023/02/20 11:22:08;;;;;;;0.03;0.03;;;;;;;15.08;65.70;101362.00;7346426;19;20014;-60
2023/02/20 11:24:39;;;;;;;0.00;0.00;;;;;;;14.85;65.90;101314.50;7360422;19;20018;-60
2023/02/20 11:27:15;;;;;;;0.03;0.03;;;;;;;15.21;66.02;101373.88;7357110;19;20566;-61
2023/02/20 11:30:15;;;;;;;0.10;0.10;;;;;;;15.26;65.50;101369.34;7357406;19;20039;-61
2023/02/20 11:32:42;;;;;;;0.10;0.10;;;;;;;15.28;65.37;101370.13;7246964;19;2004509;-61
2023/02/20 11:35:13;;;;;;;0.10;0.10;;;;;;;15.37;65.13;101376.88;7358749;19;20612;-61
2023/02/20 11:37:39;;;;;;;0.00;0.00;;;;;;;15.11;65.07;101332.97;7358504;19;20017;-61
2023/02/20 11:40:13;;;;;;;0.00;0.00;;;;;;;15.41;64.90;101386.41;7358142;19;20026;-61
2023/02/20 11:42:39;;;;;;;0.10;0.10;;;;;;;15.43;64.97;101386.34;7358478;19;20014;-61
2023/02/20 11:45:20;;;;;;;0.00;0.00;;;;;;;15.44;65.13;101388.06;7359865;19;20033;-61
2023/02/20 11:48:06;;;;;;;0.00;0.00;;;;;;;15.41;65.07;101383.78;7358330;19;20876;-60
2023/02/20 11:50:44;;;;;;;0.00;0.00;;;;;;;15.44;64.90;101388.06;7358441;19;20006;-60
2023/02/20 11:53:28;;;;;;;0.08;0.08;;;;;;;15.46;64.97;101402.91;7352011;19;20018;-60